Turah, Montana
Current Conditions -  °F | °C
As of 7:53 AM on Thursday 18 Dec 2014 (Local Time) from KMSO Reporting Station
Overcast Overcast  
Wind Chill: 28°   Ceiling: 6500
Heat Index: 28°   Visibility: 10mi
Dew Point: 25°   Wind: 0mph
Humidity: 88%   Direction: NA
Pressure: 30.02"   Gusts: NA
Location:  46.774°N, 113.676°W
Report Text: KMSO 181453Z 00000KT 10SM OVC065 M02/M04 A3002 RMK AO2 SLP199 T10221039 53003
Loading
Personal Weather Stations






























Interactive Weather Map New forecast layout! Learn more

10-Day Weather Forecast

Advertisements
Track Severe Weather on mobile